createdAt,value
2019-05-22T00:02:19.761Z,11.17
2019-05-22T00:05:31.844Z,13.40
2019-05-22T00:08:40.477Z,13.27
2019-05-22T00:11:49.889Z,12.57
2019-05-22T00:14:57.586Z,12.47
2019-05-22T00:18:07.519Z,12.97
2019-05-22T00:21:16.049Z,11.80
2019-05-22T00:24:25.474Z,13.50
2019-05-22T00:27:32.556Z,13.13
2019-05-22T00:30:42.019Z,11.83
2019-05-22T00:33:49.152Z,14.30
2019-05-22T00:36:56.731Z,12.10
2019-05-22T00:40:04.829Z,13.90
2019-05-22T00:43:14.553Z,14.63
2019-05-22T00:46:21.713Z,12.50
2019-05-22T00:49:30.518Z,11.33
2019-05-22T00:52:46.563Z,13.03
2019-05-22T00:56:02.727Z,11.30
2019-05-22T00:59:17.287Z,14.37
2019-05-22T01:02:27.997Z,12.00
2019-05-22T01:05:36.672Z,13.33
2019-05-22T01:08:46.135Z,11.80
2019-05-22T01:11:54.717Z,13.53
2019-05-22T01:15:07.799Z,11.53
2019-05-22T01:18:15.147Z,12.77
2019-05-22T01:21:24.609Z,11.10
2019-05-22T01:24:33.230Z,13.37
2019-05-22T01:27:42.261Z,11.90
2019-05-22T01:31:00.728Z,13.00
2019-05-22T01:34:20.684Z,9.30
2019-05-22T01:37:28.516Z,10.10
2019-05-22T01:40:42.363Z,11.30
2019-05-22T01:43:52.142Z,12.10
2019-05-22T01:47:04.330Z,9.80
2019-05-22T01:50:15.883Z,11.93
2019-05-22T01:53:27.073Z,11.63
2019-05-22T01:56:35.762Z,11.93
2019-05-22T01:59:45.162Z,9.83
2019-05-22T02:02:53.244Z,11.77
2019-05-22T02:06:01.412Z,10.73
2019-05-22T02:09:30.711Z,10.63
2019-05-22T02:12:51.821Z,11.43
2019-05-22T02:15:59.139Z,11.33
2019-05-22T02:19:07.194Z,9.67
2019-05-22T02:22:15.245Z,11.20
2019-05-22T02:25:24.005Z,10.47
2019-05-22T02:28:31.017Z,10.30
2019-05-22T02:31:39.574Z,12.07
2019-05-22T02:34:46.589Z,11.07
2019-05-22T02:37:54.907Z,11.67
2019-05-22T02:41:04.336Z,10.47
2019-05-22T02:44:11.628Z,11.93
2019-05-22T02:47:21.265Z,11.67
2019-05-22T02:50:27.738Z,11.53
2019-05-22T02:53:34.767Z,10.90
2019-05-22T02:56:42.042Z,11.67
2019-05-22T02:59:49.060Z,11.40
2019-05-22T03:02:57.441Z,11.23
2019-05-22T03:06:07.405Z,10.77
2019-05-22T03:09:23.700Z,11.90
2019-05-22T03:12:33.106Z,9.80
2019-05-22T03:15:42.401Z,12.23
2019-05-22T03:19:06.082Z,10.00
2019-05-22T03:21:57.995Z,11.40
2019-05-22T03:25:09.878Z,9.83
2019-05-22T03:28:17.227Z,10.30
2019-05-22T03:31:24.437Z,11.30
2019-05-22T03:34:31.483Z,11.17
2019-05-22T03:37:39.658Z,8.83
2019-05-22T03:40:46.756Z,10.77
2019-05-22T03:43:55.632Z,11.43
2019-05-22T03:47:02.640Z,9.20
2019-05-22T03:50:10.779Z,11.00
2019-05-22T03:53:19.470Z,10.60
2019-05-22T03:56:26.948Z,9.97
2019-05-22T03:59:34.555Z,10.00
2019-05-22T04:02:41.638Z,8.93
2019-05-22T04:05:48.725Z,10.87
2019-05-22T04:08:56.498Z,9.83
2019-05-22T04:12:05.499Z,9.90
2019-05-22T04:15:13.407Z,9.20
2019-05-22T04:18:22.997Z,10.30
2019-05-22T04:21:31.075Z,9.87
2019-05-22T04:24:39.322Z,8.70
2019-05-22T04:27:46.317Z,10.47
2019-05-22T04:30:53.639Z,10.30
2019-05-22T04:34:00.668Z,11.73
2019-05-22T04:37:09.179Z,9.57
2019-05-22T04:40:55.701Z,10.43
2019-05-22T04:44:02.875Z,9.87
2019-05-22T04:47:10.442Z,9.47
2019-05-22T04:50:17.866Z,8.77
2019-05-22T04:53:24.944Z,8.10
2019-05-22T04:56:32.620Z,9.90
2019-05-22T04:59:40.217Z,8.20
2019-05-22T05:02:47.513Z,9.70
2019-05-22T05:05:56.068Z,8.03
2019-05-22T05:09:03.914Z,8.23
2019-05-22T05:12:11.655Z,7.17
2019-05-22T05:15:18.742Z,12.40
2019-05-22T05:18:26.222Z,9.57
2019-05-22T05:21:33.531Z,9.53
2019-05-22T05:24:40.543Z,7.17
2019-05-22T05:27:48.112Z,7.17
2019-05-22T05:30:57.190Z,6.40
2019-05-22T05:34:30.930Z,7.67
2019-05-22T05:37:38.203Z,6.47
2019-05-22T05:40:45.396Z,5.80
2019-05-22T05:43:52.609Z,7.43
2019-05-22T05:47:00.024Z,6.77
2019-05-22T05:50:09.489Z,8.37
2019-05-22T05:53:20.403Z,7.07
2019-05-22T05:56:29.037Z,8.07
2019-05-22T05:59:36.001Z,8.83
2019-05-22T06:02:56.122Z,7.77
2019-05-22T06:05:52.006Z,8.73
2019-05-22T06:08:59.942Z,8.30
2019-05-22T06:12:08.486Z,8.37
2019-05-22T06:15:15.999Z,8.00
2019-05-22T06:18:38.413Z,10.27
2019-05-22T06:21:44.608Z,8.33
2019-05-22T06:25:01.923Z,9.77
2019-05-22T06:28:09.577Z,9.10
2019-05-22T06:31:24.321Z,8.47
2019-05-22T06:34:31.455Z,8.57
2019-05-22T06:37:55.173Z,10.23
2019-05-22T06:41:02.379Z,8.30
2019-05-22T06:44:38.748Z,8.80
2019-05-22T06:47:45.772Z,8.10
2019-05-22T06:50:53.093Z,7.70
2019-05-22T06:54:00.096Z,8.13
2019-05-22T06:57:11.291Z,8.70
2019-05-22T07:00:21.691Z,6.90
2019-05-22T07:03:28.737Z,7.80
2019-05-22T07:06:35.864Z,7.80
2019-05-22T07:09:44.854Z,8.27
2019-05-22T07:12:51.942Z,9.57
2019-05-22T07:16:02.158Z,7.77
2019-05-22T07:19:10.359Z,8.93
2019-05-22T07:22:17.457Z,9.23
2019-05-22T07:25:27.089Z,9.17
2019-05-22T07:28:35.266Z,9.27
2019-05-22T07:31:42.556Z,8.43
2019-05-22T07:34:49.528Z,11.00
2019-05-22T07:37:57.576Z,9.40
2019-05-22T07:41:05.222Z,9.70
2019-05-22T07:44:12.415Z,8.73
2019-05-22T07:47:22.680Z,9.27
2019-05-22T07:50:31.713Z,7.70
2019-05-22T07:53:38.751Z,9.93
2019-05-22T07:56:46.756Z,9.13
2019-05-22T07:59:53.899Z,9.50
2019-05-22T08:03:01.023Z,8.10
2019-05-22T08:06:08.423Z,7.70
2019-05-22T08:09:17.944Z,8.13
2019-05-22T08:12:25.413Z,8.10
2019-05-22T08:15:33.047Z,7.20
2019-05-22T08:18:41.829Z,7.10
2019-05-22T08:21:48.815Z,7.40
2019-05-22T08:24:56.009Z,7.00
2019-05-22T08:28:03.175Z,7.40
2019-05-22T08:31:10.893Z,7.23
2019-05-22T08:34:18.138Z,8.93
2019-05-22T08:37:31.381Z,7.80
2019-05-22T08:40:39.466Z,8.27
2019-05-22T08:44:13.875Z,8.20
2019-05-22T08:46:56.734Z,7.63
2019-05-22T08:50:04.411Z,7.60
2019-05-22T08:53:15.786Z,7.30
2019-05-22T08:56:23.921Z,6.63
2019-05-22T08:59:31.032Z,6.17
2019-05-22T09:02:38.016Z,7.93
2019-05-22T09:05:45.350Z,6.07
2019-05-22T09:08:52.334Z,7.10
2019-05-22T09:11:59.299Z,5.33
2019-05-22T09:15:06.660Z,7.00
2019-05-22T09:18:13.730Z,6.07
2019-05-22T09:21:20.746Z,6.00
2019-05-22T09:24:28.118Z,5.87
2019-05-22T09:27:36.019Z,6.57
2019-05-22T09:30:43.269Z,6.50
2019-05-22T09:33:50.406Z,6.17
2019-05-22T09:36:57.379Z,5.63
2019-05-22T09:40:05.187Z,5.73
2019-05-22T09:43:12.234Z,5.53
2019-05-22T09:46:19.908Z,5.73
2019-05-22T09:49:27.618Z,5.07
2019-05-22T09:52:35.426Z,6.33
2019-05-22T09:55:47.019Z,4.70
2019-05-22T09:58:51.206Z,6.20
2019-05-22T10:01:58.219Z,4.80
2019-05-22T10:05:06.304Z,5.93
2019-05-22T10:08:13.781Z,4.83
2019-05-22T10:11:21.425Z,4.80
2019-05-22T10:14:28.605Z,4.93
2019-05-22T10:17:36.910Z,5.90
2019-05-22T10:20:44.773Z,5.40
2019-05-22T10:23:52.590Z,5.20
2019-05-22T10:26:59.835Z,6.40
2019-05-22T10:30:07.906Z,6.23
2019-05-22T10:33:15.188Z,6.27
2019-05-22T10:36:22.695Z,6.23
2019-05-22T10:39:30.773Z,5.23
2019-05-22T10:42:37.782Z,7.43
2019-05-22T10:45:45.643Z,6.43
2019-05-22T10:48:53.346Z,6.33
2019-05-22T10:52:00.363Z,6.77
2019-05-22T10:55:08.122Z,6.60
2019-05-22T10:58:15.772Z,6.03
2019-05-22T11:01:23.268Z,5.33
2019-05-22T11:04:30.935Z,6.53
2019-05-22T11:07:38.032Z,6.10
2019-05-22T11:10:45.763Z,5.83
2019-05-22T11:14:01.428Z,6.67
2019-05-22T11:17:01.897Z,6.77
2019-05-22T11:20:09.863Z,6.27
2019-05-22T11:23:17.350Z,6.27
2019-05-22T11:26:24.448Z,6.03
2019-05-22T11:29:31.766Z,5.13
2019-05-22T11:32:38.743Z,6.60
2019-05-22T11:35:46.671Z,6.63
2019-05-22T11:38:53.663Z,5.77
2019-05-22T11:42:00.696Z,6.03
2019-05-22T11:45:08.135Z,5.03
2019-05-22T11:48:15.413Z,5.90
2019-05-22T11:51:23.018Z,6.33
2019-05-22T11:54:30.072Z,5.53
2019-05-22T11:57:38.019Z,4.87
2019-05-22T12:00:45.194Z,5.27
2019-05-22T12:03:52.705Z,4.73
2019-05-22T12:06:59.893Z,5.00
2019-05-22T12:10:07.186Z,4.80
2019-05-22T12:13:14.136Z,5.57
2019-05-22T12:16:21.651Z,4.80
2019-05-22T12:19:28.867Z,5.50
2019-05-22T12:22:36.299Z,5.47
2019-05-22T12:25:43.278Z,6.53
2019-05-22T12:28:50.343Z,4.67
2019-05-22T12:31:57.639Z,5.57
2019-05-22T12:35:04.689Z,6.10
2019-05-22T12:38:12.829Z,4.77
2019-05-22T12:41:20.256Z,5.03
2019-05-22T12:44:27.468Z,6.43
2019-05-22T12:47:34.732Z,4.93
2019-05-22T12:50:41.786Z,4.83
2019-05-22T12:53:49.103Z,4.90
2019-05-22T12:56:56.616Z,4.90
2019-05-22T13:00:05.333Z,4.43
2019-05-22T13:03:14.092Z,4.80
2019-05-22T13:06:21.733Z,4.50
2019-05-22T13:09:29.532Z,4.43
2019-05-22T13:12:37.261Z,4.17
2019-05-22T13:15:45.243Z,4.50
2019-05-22T13:18:53.373Z,5.17
2019-05-22T13:22:02.497Z,4.57
2019-05-22T13:25:12.575Z,4.03
2019-05-22T13:28:19.816Z,5.27
2019-05-22T13:31:26.988Z,4.67
2019-05-22T13:34:34.632Z,5.13
2019-05-22T13:37:41.710Z,5.13
2019-05-22T13:40:49.611Z,4.45
2019-05-22T13:43:57.011Z,4.77
2019-05-22T13:47:05.271Z,5.20
2019-05-22T13:50:15.410Z,5.87
2019-05-22T13:53:22.923Z,5.13
2019-05-22T13:56:30.358Z,5.23
2019-05-22T13:59:37.492Z,6.33
2019-05-22T14:02:44.487Z,5.40
2019-05-22T14:05:52.382Z,6.87
2019-05-22T14:08:59.916Z,5.80
2019-05-22T14:12:08.112Z,7.33
2019-05-22T14:15:15.981Z,5.87
2019-05-22T14:18:23.080Z,7.73
2019-05-22T14:21:30.477Z,7.00
2019-05-22T14:24:37.471Z,5.60
2019-05-22T14:27:44.641Z,6.37
2019-05-22T14:30:51.723Z,5.93
2019-05-22T14:33:58.993Z,4.87
2019-05-22T14:37:06.986Z,4.57
2019-05-22T14:40:14.458Z,4.73
2019-05-22T14:43:21.489Z,4.97
2019-05-22T14:46:28.482Z,4.80
2019-05-22T14:49:35.604Z,4.93
2019-05-22T14:52:42.803Z,4.87
2019-05-22T14:55:51.715Z,5.50
2019-05-22T14:58:58.742Z,4.27
2019-05-22T15:02:06.126Z,4.97
2019-05-22T15:05:13.466Z,4.73
2019-05-22T15:08:20.473Z,5.17
2019-05-22T15:11:27.955Z,4.63
2019-05-22T15:14:34.956Z,4.90
2019-05-22T15:17:41.915Z,4.43
2019-05-22T15:21:00.134Z,5.13
2019-05-22T15:24:08.427Z,4.63
2019-05-22T15:27:16.351Z,4.57
2019-05-22T15:30:23.647Z,5.63
2019-05-22T15:33:31.297Z,4.43
2019-05-22T15:36:39.137Z,4.60
2019-05-22T15:39:46.114Z,3.90
2019-05-22T15:42:54.071Z,4.53
2019-05-22T15:46:03.139Z,4.17
2019-05-22T15:49:12.692Z,4.33
2019-05-22T15:52:21.772Z,3.87
2019-05-22T15:55:31.298Z,3.83
2019-05-22T15:58:42.679Z,3.73
2019-05-22T16:01:51.473Z,4.10
2019-05-22T16:04:59.572Z,3.70
2019-05-22T16:08:07.085Z,3.67
2019-05-22T16:11:16.951Z,3.00
2019-05-22T16:14:25.413Z,3.30
2019-05-22T16:17:33.285Z,2.90
2019-05-22T16:20:41.411Z,3.57
2019-05-22T16:23:48.533Z,3.20
2019-05-22T16:26:57.012Z,2.93
2019-05-22T16:30:04.266Z,3.40
2019-05-22T16:33:12.291Z,3.50
2019-05-22T16:36:20.081Z,3.47
2019-05-22T16:39:27.869Z,3.43
2019-05-22T16:42:36.197Z,3.17
2019-05-22T16:45:44.022Z,3.53
2019-05-22T16:48:52.115Z,3.90
2019-05-22T16:52:01.038Z,3.33
2019-05-22T16:55:09.563Z,3.57
2019-05-22T16:58:16.785Z,3.93
2019-05-22T17:01:25.781Z,3.43
2019-05-22T17:04:32.838Z,3.73
2019-05-22T17:07:40.209Z,3.93
2019-05-22T17:10:48.884Z,3.57
2019-05-22T17:14:00.150Z,3.50
2019-05-22T17:17:07.446Z,3.30
2019-05-22T17:20:15.154Z,3.40
2019-05-22T17:23:22.369Z,4.00
2019-05-22T17:26:30.188Z,3.80
2019-05-22T17:29:37.346Z,3.43
2019-05-22T17:32:45.066Z,4.03
2019-05-22T17:35:54.024Z,4.00
2019-05-22T17:39:01.297Z,3.90
2019-05-22T17:42:09.796Z,4.13
2019-05-22T17:45:19.024Z,4.43
2019-05-22T17:48:26.172Z,4.07
2019-05-22T17:51:33.358Z,3.80
2019-05-22T17:54:40.704Z,3.73
2019-05-22T17:57:47.924Z,3.90
2019-05-22T18:00:59.539Z,4.37
2019-05-22T18:04:05.400Z,4.20
2019-05-22T18:07:12.437Z,4.40
2019-05-22T18:10:19.690Z,3.50
2019-05-22T18:13:27.131Z,4.40
2019-05-22T18:16:35.143Z,3.87
2019-05-22T18:19:42.468Z,4.50
2019-05-22T18:22:49.489Z,4.67
2019-05-22T18:25:56.623Z,4.03
2019-05-22T18:29:03.922Z,4.67
2019-05-22T18:32:12.200Z,4.17
2019-05-22T18:35:19.692Z,4.67
2019-05-22T18:38:26.730Z,5.87
2019-05-22T18:41:33.920Z,6.70
2019-05-22T18:44:40.898Z,6.30
2019-05-22T18:47:47.987Z,6.53
2019-05-22T18:50:55.239Z,7.10
2019-05-22T18:54:02.215Z,6.40
2019-05-22T18:57:09.412Z,6.50
2019-05-22T19:00:21.895Z,6.40
2019-05-22T19:03:29.088Z,5.03
2019-05-22T19:06:36.318Z,5.93
2019-05-22T19:09:43.576Z,5.23
2019-05-22T19:12:50.887Z,7.07
2019-05-22T19:15:57.906Z,5.50
2019-05-22T19:19:05.142Z,5.70
2019-05-22T19:22:12.698Z,5.23
2019-05-22T19:25:20.008Z,5.67
2019-05-22T19:28:42.324Z,5.57
2019-05-22T19:31:35.938Z,5.70
2019-05-22T19:34:45.238Z,5.70
2019-05-22T19:37:52.592Z,5.53
2019-05-22T19:40:59.865Z,5.83
2019-05-22T19:44:07.653Z,5.00
2019-05-22T19:47:15.659Z,5.77
2019-05-22T19:50:24.235Z,4.77
2019-05-22T19:53:31.429Z,4.97
2019-05-22T19:56:39.358Z,4.67
2019-05-22T19:59:46.888Z,4.33
2019-05-22T20:02:54.382Z,4.37
2019-05-22T20:06:02.344Z,4.70
2019-05-22T20:09:10.072Z,4.40
2019-05-22T20:12:19.103Z,5.10
2019-05-22T20:15:26.313Z,4.63
2019-05-22T20:18:33.438Z,4.53
2019-05-22T20:21:40.523Z,4.60
2019-05-22T20:24:47.607Z,4.77
2019-05-22T20:27:55.983Z,4.80
2019-05-22T20:31:02.996Z,4.70
2019-05-22T20:34:10.199Z,5.23
2019-05-22T20:37:18.264Z,5.20
2019-05-22T20:40:25.356Z,4.93
2019-05-22T20:43:33.035Z,6.07
2019-05-22T20:46:41.582Z,4.97
2019-05-22T20:49:49.608Z,4.97
2019-05-22T20:52:56.792Z,5.00
2019-05-22T20:56:04.447Z,6.23
2019-05-22T20:59:11.397Z,4.40
2019-05-22T21:02:19.898Z,4.80
2019-05-22T21:05:27.627Z,5.63
2019-05-22T21:08:34.627Z,4.97
2019-05-22T21:11:42.956Z,4.90
2019-05-22T21:14:50.088Z,5.13
2019-05-22T21:17:58.683Z,4.97
2019-05-22T21:21:06.114Z,5.50
2019-05-22T21:24:14.014Z,5.23
2019-05-22T21:27:21.434Z,5.00
2019-05-22T21:30:29.880Z,4.77
2019-05-22T21:33:37.821Z,5.83
2019-05-22T21:36:45.856Z,5.07
2019-05-22T21:39:53.306Z,5.53
2019-05-22T21:43:00.690Z,4.80
2019-05-22T21:46:07.808Z,5.50
2019-05-22T21:49:15.755Z,5.57
2019-05-22T21:52:23.292Z,5.27
2019-05-22T21:55:30.416Z,5.97
2019-05-22T21:58:38.507Z,5.73
2019-05-22T22:01:51.692Z,5.90
2019-05-22T22:04:58.961Z,6.00
2019-05-22T22:08:06.346Z,5.93
2019-05-22T22:11:14.272Z,6.10
2019-05-22T22:14:22.300Z,6.90
2019-05-22T22:17:30.757Z,6.80
2019-05-22T22:20:38.272Z,6.90
2019-05-22T22:23:47.090Z,7.10
2019-05-22T22:26:55.937Z,6.27
2019-05-22T22:30:05.414Z,5.80
2019-05-22T22:33:14.282Z,6.80
2019-05-22T22:36:21.389Z,7.50
2019-05-22T22:39:30.599Z,7.67
2019-05-22T22:42:38.083Z,6.33
2019-05-22T22:45:54.719Z,6.97
2019-05-22T22:49:03.111Z,7.17
2019-05-22T22:52:12.204Z,7.10
2019-05-22T22:55:21.004Z,6.33
2019-05-22T22:58:28.731Z,5.87
2019-05-22T23:01:40.645Z,7.10
2019-05-22T23:04:48.744Z,6.40
2019-05-22T23:07:56.925Z,6.80
2019-05-22T23:11:07.150Z,6.13
2019-05-22T23:14:15.439Z,7.40
2019-05-22T23:17:22.427Z,7.60
2019-05-22T23:20:29.059Z,7.57
2019-05-22T23:23:35.164Z,6.83
2019-05-22T23:26:42.975Z,6.80
2019-05-22T23:29:50.972Z,6.93
2019-05-22T23:32:58.142Z,6.43
2019-05-22T23:36:06.060Z,8.00
2019-05-22T23:39:15.641Z,6.87
2019-05-22T23:42:28.869Z,6.37
2019-05-22T23:45:36.059Z,7.20
2019-05-22T23:48:43.872Z,7.23
2019-05-22T23:51:51.017Z,6.67
2019-05-22T23:54:58.054Z,6.73
2019-05-22T23:58:07.092Z,6.87
